Time;durP1;ratioP1;P1;durP2;ratioP2;P2;SDS_P1;SDS_P2;PMS_P1;PMS_P2;Temp;Humidity;BMP_temperature;BMP_pressure;BME280_temperature;BME280_humidity;BME280_pressure;Samples;Min_cycle;Max_cycle;Signal;HPM_P1;HPM_P2
2023/01/18 00:01:41;;;;;;;0.20;0.20;;;;;;;;;;4927722;28;20051;-73
2023/01/18 00:04:07;;;;;;;0.20;0.20;;;;;;;;;;4932301;28;20106;-73
2023/01/18 00:06:33;;;;;;;0.20;0.20;;;;;;;;;;4933233;28;20053;-74
2023/01/18 00:08:59;;;;;;;0.20;0.20;;;;;;;;;;4929772;28;20678;-73
2023/01/18 00:11:25;;;;;;;0.20;0.20;;;;;;;;;;4913713;29;20446;-74
2023/01/18 00:13:52;;;;;;;0.13;0.13;;;;;;;;;;4913798;28;20600;-74
2023/01/18 00:16:19;;;;;;;0.20;0.20;;;;;;;;;;4922001;28;20066;-73
2023/01/18 00:18:53;;;;;;;0.20;0.20;;;;;;;;;;4929592;28;20525;-74
2023/01/18 00:21:21;;;;;;;0.20;0.20;;;;;;;;;;4936148;28;20128;-74
2023/01/18 00:23:48;;;;;;;0.20;0.20;;;;;;;;;;4935710;28;20521;-76
2023/01/18 00:26:14;;;;;;;0.20;0.20;;;;;;;;;;4931854;28;20424;-74
2023/01/18 00:28:41;;;;;;;0.20;0.20;;;;;;;;;;4931149;28;20145;-75
2023/01/18 00:31:17;;;;;;;0.20;0.20;;;;;;;;;;4931309;28;20073;-76
2023/01/18 00:33:44;;;;;;;0.20;0.20;;;;;;;;;;4931404;28;20049;-75
2023/01/18 00:36:10;;;;;;;0.20;0.20;;;;;;;;;;4932822;28;20344;-73
2023/01/18 00:38:36;;;;;;;0.20;0.20;;;;;;;;;;4934322;28;20043;-73
2023/01/18 00:41:02;;;;;;;0.20;0.20;;;;;;;;;;4925503;28;20054;-75
2023/01/18 00:43:37;;;;;;;0.20;0.20;;;;;;;;;;4931289;28;20085;-74
2023/01/18 00:46:04;;;;;;;0.20;0.20;;;;;;;;;;4934092;28;20275;-75
2023/01/18 00:48:30;;;;;;;0.20;0.20;;;;;;;;;;4932493;28;20129;-74
2023/01/18 00:50:56;;;;;;;0.20;0.20;;;;;;;;;;4932660;28;20127;-75
2023/01/18 00:53:22;;;;;;;0.20;0.20;;;;;;;;;;4933421;28;20034;-75
2023/01/18 00:55:48;;;;;;;0.20;0.20;;;;;;;;;;4931125;28;20042;-75
2023/01/18 00:58:14;;;;;;;0.10;0.10;;;;;;;;;;4932089;28;20053;-75
2023/01/18 01:00:41;;;;;;;0.20;0.20;;;;;;;;;;4930944;28;20620;-74
2023/01/18 01:03:07;;;;;;;0.10;0.10;;;;;;;;;;4930498;28;20590;-74
2023/01/18 01:08:18;;;;;;;0.20;0.20;;;;;;;;;;4931362;28;20057;-74
2023/01/18 01:10:46;;;;;;;0.20;0.20;;;;;;;;;;4932659;28;21078;-74
2023/01/18 01:26:56;;;;;;;0.20;0.20;;;;;;;;;;4931317;28;20838;-74
2023/01/18 01:29:22;;;;;;;0.20;0.20;;;;;;;;;;4931960;28;20268;-73
2023/01/18 01:31:48;;;;;;;0.20;0.20;;;;;;;;;;4927685;28;20464;-73
2023/01/18 01:34:14;;;;;;;0.20;0.20;;;;;;;;;;4930054;28;20602;-73
2023/01/18 01:36:40;;;;;;;0.10;0.10;;;;;;;;;;4931197;28;20038;-73
2023/01/18 01:39:09;;;;;;;0.20;0.20;;;;;;;;;;4932356;28;20414;-73
2023/01/18 01:41:35;;;;;;;0.20;0.20;;;;;;;;;;4924429;28;21514;-74
2023/01/18 01:44:18;;;;;;;0.20;0.20;;;;;;;;;;4928487;28;20577;-73
2023/01/18 01:46:51;;;;;;;0.20;0.20;;;;;;;;;;4923295;28;20074;-74
2023/01/18 01:49:23;;;;;;;0.20;0.20;;;;;;;;;;4929491;28;20507;-75
2023/01/18 01:52:06;;;;;;;0.20;0.20;;;;;;;;;;4928672;28;20043;-75
2023/01/18 01:54:38;;;;;;;0.10;0.10;;;;;;;;;;4928149;28;20046;-72
2023/01/18 01:57:17;;;;;;;0.20;0.20;;;;;;;;;;4930130;28;20059;-74
2023/01/18 01:59:49;;;;;;;0.20;0.20;;;;;;;;;;4932994;28;21075;-73
2023/01/18 02:02:16;;;;;;;0.20;0.20;;;;;;;;;;4931347;28;20059;-74
2023/01/18 02:04:44;;;;;;;0.20;0.20;;;;;;;;;;4931522;28;20071;-73
2023/01/18 02:07:10;;;;;;;0.20;0.20;;;;;;;;;;4932159;28;20042;-73
2023/01/18 02:09:36;;;;;;;0.20;0.20;;;;;;;;;;4925254;28;20059;-73
2023/01/18 02:12:03;;;;;;;0.10;0.10;;;;;;;;;;4916520;28;20384;-73
2023/01/18 02:14:29;;;;;;;0.20;0.20;;;;;;;;;;4930924;28;20526;-74
2023/01/18 02:17:10;;;;;;;0.10;0.10;;;;;;;;;;4931649;28;20062;-74
2023/01/18 02:19:55;;;;;;;0.20;0.20;;;;;;;;;;4927153;28;20625;-75
2023/01/18 02:22:43;;;;;;;0.20;0.20;;;;;;;;;;4929425;28;20061;-73
2023/01/18 02:25:13;;;;;;;0.20;0.20;;;;;;;;;;4923631;28;20061;-74
2023/01/18 02:27:45;;;;;;;0.20;0.20;;;;;;;;;;4926119;28;20046;-73
2023/01/18 02:30:11;;;;;;;0.20;0.20;;;;;;;;;;4929617;28;20050;-75
2023/01/18 02:32:37;;;;;;;0.20;0.20;;;;;;;;;;4931886;28;20043;-73
2023/01/18 02:35:08;;;;;;;0.20;0.20;;;;;;;;;;4929972;28;20502;-73
2023/01/18 02:37:41;;;;;;;0.20;0.20;;;;;;;;;;4931467;28;20057;-74
2023/01/18 02:40:16;;;;;;;0.20;0.20;;;;;;;;;;4931526;28;20055;-73
2023/01/18 02:48:18;;;;;;;0.20;0.20;;;;;;;;;;4927040;28;20047;-73
2023/01/18 02:50:44;;;;;;;0.20;0.20;;;;;;;;;;4929102;28;20056;-73
2023/01/18 02:53:14;;;;;;;0.20;0.20;;;;;;;;;;4921235;28;20431;-73
2023/01/18 02:55:46;;;;;;;0.20;0.20;;;;;;;;;;4920765;28;20185;-73
2023/01/18 02:58:22;;;;;;;0.20;0.20;;;;;;;;;;4929036;28;20995;-73
2023/01/18 03:00:52;;;;;;;0.20;0.20;;;;;;;;;;4931922;28;20054;-73
2023/01/18 03:03:19;;;;;;;0.20;0.20;;;;;;;;;;4932572;28;20435;-76
2023/01/18 03:05:47;;;;;;;0.20;0.20;;;;;;;;;;4929499;28;20421;-75
2023/01/18 03:08:18;;;;;;;0.20;0.20;;;;;;;;;;4931215;28;20510;-76
2023/01/18 03:11:10;;;;;;;0.20;0.20;;;;;;;;;;4930220;28;20515;-74
2023/01/18 03:13:48;;;;;;;0.20;0.20;;;;;;;;;;4929814;28;20050;-73
2023/01/18 03:16:38;;;;;;;0.20;0.20;;;;;;;;;;4930053;28;20322;-73
2023/01/18 03:21:52;;;;;;;0.20;0.20;;;;;;;;;;4930009;28;20111;-73
2023/01/18 03:24:19;;;;;;;0.20;0.20;;;;;;;;;;4929749;28;20082;-72
2023/01/18 03:26:48;;;;;;;0.20;0.20;;;;;;;;;;4930943;28;20483;-73
2023/01/18 03:34:58;;;;;;;0.20;0.20;;;;;;;;;;4927608;28;20585;-77
2023/01/18 03:37:30;;;;;;;0.20;0.20;;;;;;;;;;4929276;28;20054;-74
2023/01/18 03:39:56;;;;;;;;;;;;;;;;;;4929900;28;20139;-75
2023/01/18 03:42:26;;;;;;;0.10;0.10;;;;;;;;;;4929298;28;19932;-75
2023/01/18 03:44:59;;;;;;;0.20;0.20;;;;;;;;;;4926212;28;20076;-75
2023/01/18 03:47:25;;;;;;;0.20;0.20;;;;;;;;;;4921131;28;20454;-75
2023/01/18 03:49:51;;;;;;;0.20;0.20;;;;;;;;;;4932289;28;20120;-75
2023/01/18 03:52:25;;;;;;;0.20;0.20;;;;;;;;;;4937373;28;20039;-75
2023/01/18 03:54:58;;;;;;;0.20;0.20;;;;;;;;;;4930172;28;20057;-74
2023/01/18 03:57:33;;;;;;;0.20;0.20;;;;;;;;;;4930834;28;20476;-75
2023/01/18 03:59:59;;;;;;;0.20;0.20;;;;;;;;;;4932067;28;20051;-75
2023/01/18 04:02:26;;;;;;;0.10;0.10;;;;;;;;;;4932642;28;20050;-75
2023/01/18 04:04:56;;;;;;;0.15;0.15;;;;;;;;;;4933515;28;20051;-74
2023/01/18 04:07:23;;;;;;;0.20;0.20;;;;;;;;;;4932230;28;20396;-74
2023/01/18 04:09:49;;;;;;;0.20;0.20;;;;;;;;;;4932301;28;20121;-74
2023/01/18 04:12:15;;;;;;;0.20;0.20;;;;;;;;;;4931429;28;20042;-74
2023/01/18 04:14:41;;;;;;;0.20;0.20;;;;;;;;;;4934627;28;20516;-74
2023/01/18 04:17:07;;;;;;;0.20;0.20;;;;;;;;;;4934053;28;20058;-75
2023/01/18 04:19:33;;;;;;;0.20;0.20;;;;;;;;;;4935185;28;20081;-74
2023/01/18 04:21:59;;;;;;;0.20;0.20;;;;;;;;;;4931751;28;20043;-73
2023/01/18 04:24:25;;;;;;;0.20;0.20;;;;;;;;;;4929853;28;20710;-73
2023/01/18 04:26:51;;;;;;;0.13;0.13;;;;;;;;;;4927792;28;20050;-73
2023/01/18 04:29:17;;;;;;;0.20;0.20;;;;;;;;;;4928084;28;20455;-73
2023/01/18 04:31:43;;;;;;;0.20;0.20;;;;;;;;;;4933660;28;20043;-73
2023/01/18 04:34:09;;;;;;;0.20;0.20;;;;;;;;;;4934157;28;20117;-73
2023/01/18 04:36:35;;;;;;;0.20;0.20;;;;;;;;;;4933090;28;20051;-73
2023/01/18 04:39:01;;;;;;;0.10;0.10;;;;;;;;;;4930717;28;20049;-73
2023/01/18 04:41:28;;;;;;;0.20;0.20;;;;;;;;;;4931466;28;20186;-73
2023/01/18 04:43:54;;;;;;;0.20;0.20;;;;;;;;;;4929799;28;20514;-73
2023/01/18 04:46:20;;;;;;;0.13;0.13;;;;;;;;;;4931143;28;20053;-73
2023/01/18 04:48:50;;;;;;;0.20;0.20;;;;;;;;;;4931140;28;20376;-73
2023/01/18 04:51:17;;;;;;;0.20;0.20;;;;;;;;;;4934377;28;20047;-73
2023/01/18 04:53:43;;;;;;;0.20;0.20;;;;;;;;;;4933020;28;20573;-73
2023/01/18 04:56:10;;;;;;;0.20;0.20;;;;;;;;;;4934579;28;20049;-75
2023/01/18 04:58:36;;;;;;;0.20;0.20;;;;;;;;;;4935384;28;20043;-75
2023/01/18 05:01:07;;;;;;;0.20;0.20;;;;;;;;;;4932886;28;20101;-73
2023/01/18 05:03:36;;;;;;;0.20;0.20;;;;;;;;;;4934407;28;20569;-74
2023/01/18 05:06:04;;;;;;;0.20;0.20;;;;;;;;;;4932274;28;20054;-74
2023/01/18 05:08:30;;;;;;;0.20;0.20;;;;;;;;;;4930396;28;20046;-74
2023/01/18 05:11:00;;;;;;;0.20;0.20;;;;;;;;;;4932710;28;20081;-74
2023/01/18 05:13:26;;;;;;;0.10;0.10;;;;;;;;;;4929093;28;20082;-74
2023/01/18 05:15:52;;;;;;;0.20;0.20;;;;;;;;;;4932158;28;20058;-74
2023/01/18 05:18:18;;;;;;;0.10;0.10;;;;;;;;;;4929342;28;20049;-74
2023/01/18 05:20:44;;;;;;;0.20;0.20;;;;;;;;;;4934742;28;20451;-74
2023/01/18 05:23:10;;;;;;;0.20;0.20;;;;;;;;;;4931667;28;20046;-74
2023/01/18 05:25:36;;;;;;;0.10;0.10;;;;;;;;;;4931991;28;20102;-73
2023/01/18 05:28:02;;;;;;;0.20;0.20;;;;;;;;;;4924635;28;20141;-74
2023/01/18 05:30:28;;;;;;;0.20;0.20;;;;;;;;;;4926188;28;20053;-73
2023/01/18 05:32:54;;;;;;;0.20;0.20;;;;;;;;;;4929486;28;20474;-75
2023/01/18 05:35:20;;;;;;;0.20;0.20;;;;;;;;;;4925747;28;20046;-73
2023/01/18 05:37:46;;;;;;;0.20;0.20;;;;;;;;;;4928210;28;20689;-75
2023/01/18 05:40:12;;;;;;;0.15;0.15;;;;;;;;;;4932855;28;20047;-75
2023/01/18 05:42:38;;;;;;;0.20;0.20;;;;;;;;;;4924369;28;20055;-74
2023/01/18 05:45:04;;;;;;;0.20;0.20;;;;;;;;;;4927712;28;20057;-74
2023/01/18 05:47:30;;;;;;;0.20;0.20;;;;;;;;;;4929695;28;20073;-74
2023/01/18 05:49:56;;;;;;;0.10;0.10;;;;;;;;;;4933224;28;20039;-73
2023/01/18 05:52:22;;;;;;;0.20;0.20;;;;;;;;;;4930820;28;20073;-73
2023/01/18 05:54:48;;;;;;;0.20;0.20;;;;;;;;;;4932399;28;20047;-73
2023/01/18 05:57:14;;;;;;;0.20;0.20;;;;;;;;;;4930390;28;20110;-73
2023/01/18 05:59:40;;;;;;;0.20;0.20;;;;;;;;;;4929729;28;20066;-76
2023/01/18 06:02:07;;;;;;;0.20;0.20;;;;;;;;;;4926002;28;20593;-73
2023/01/18 06:04:33;;;;;;;0.20;0.20;;;;;;;;;;4925155;28;20061;-73
2023/01/18 06:06:59;;;;;;;0.20;0.20;;;;;;;;;;4929245;28;20054;-73
2023/01/18 06:09:25;;;;;;;0.20;0.20;;;;;;;;;;4923835;28;20070;-73
2023/01/18 06:11:51;;;;;;;0.17;0.17;;;;;;;;;;4927718;28;20514;-73
2023/01/18 06:14:17;;;;;;;0.20;0.20;;;;;;;;;;4930442;28;20126;-73
2023/01/18 06:16:43;;;;;;;0.13;0.13;;;;;;;;;;4931289;28;20299;-73
2023/01/18 06:19:09;;;;;;;0.20;0.20;;;;;;;;;;4929367;28;20070;-74
2023/01/18 06:21:35;;;;;;;0.20;0.20;;;;;;;;;;4928549;28;20039;-72
2023/01/18 06:24:01;;;;;;;0.20;0.20;;;;;;;;;;4927312;28;20499;-73
2023/01/18 06:26:29;;;;;;;0.20;0.20;;;;;;;;;;4931381;28;20049;-73
2023/01/18 06:28:55;;;;;;;0.20;0.20;;;;;;;;;;4929017;28;20589;-75
2023/01/18 06:31:22;;;;;;;0.20;0.20;;;;;;;;;;4928293;28;20043;-75
2023/01/18 06:33:48;;;;;;;0.10;0.10;;;;;;;;;;4928836;28;21141;-73
2023/01/18 06:36:14;;;;;;;0.20;0.20;;;;;;;;;;4930438;28;20572;-73
2023/01/18 06:38:40;;;;;;;0.20;0.20;;;;;;;;;;4930885;28;20275;-74
2023/01/18 06:41:06;;;;;;;0.20;0.20;;;;;;;;;;4926450;28;20846;-74
2023/01/18 06:43:33;;;;;;;0.20;0.20;;;;;;;;;;4932611;28;20043;-73
2023/01/18 06:45:59;;;;;;;0.20;0.20;;;;;;;;;;4926582;28;20513;-74
2023/01/18 06:48:26;;;;;;;0.20;0.20;;;;;;;;;;4929753;28;21043;-73
2023/01/18 06:50:53;;;;;;;0.20;0.20;;;;;;;;;;4929402;28;20127;-73
2023/01/18 06:53:19;;;;;;;0.20;0.20;;;;;;;;;;4927373;28;20366;-73
2023/01/18 06:55:52;;;;;;;0.20;0.20;;;;;;;;;;4929962;28;20811;-73
2023/01/18 06:58:18;;;;;;;0.20;0.20;;;;;;;;;;4929633;28;20634;-73
2023/01/18 07:00:44;;;;;;;0.20;0.20;;;;;;;;;;4928643;28;20034;-75
2023/01/18 07:03:10;;;;;;;0.10;0.10;;;;;;;;;;4925563;28;20051;-75
2023/01/18 07:05:36;;;;;;;0.20;0.20;;;;;;;;;;4927850;28;20070;-75
2023/01/18 07:08:02;;;;;;;0.20;0.20;;;;;;;;;;4927743;28;20043;-73
2023/01/18 07:10:28;;;;;;;0.20;0.20;;;;;;;;;;4929095;28;20049;-73
2023/01/18 07:12:54;;;;;;;0.20;0.20;;;;;;;;;;4927107;28;20047;-74
2023/01/18 07:15:20;;;;;;;0.20;0.20;;;;;;;;;;4925109;28;20042;-76
2023/01/18 07:17:49;;;;;;;0.20;0.20;;;;;;;;;;4929761;28;20062;-75
2023/01/18 07:20:15;;;;;;;0.20;0.20;;;;;;;;;;4924084;28;20130;-74
2023/01/18 07:22:41;;;;;;;0.20;0.20;;;;;;;;;;4926356;28;20137;-72
2023/01/18 07:25:09;;;;;;;0.10;0.10;;;;;;;;;;4930142;28;20050;-72
2023/01/18 07:27:35;;;;;;;0.20;0.20;;;;;;;;;;4925329;28;20049;-72
2023/01/18 07:30:01;;;;;;;0.20;0.20;;;;;;;;;;4930950;28;20050;-70
2023/01/18 07:32:27;;;;;;;0.20;0.20;;;;;;;;;;4929633;28;20061;-71
2023/01/18 07:34:53;;;;;;;0.20;0.20;;;;;;;;;;4928188;28;20330;-70
2023/01/18 07:37:19;;;;;;;0.20;0.20;;;;;;;;;;4929568;28;20858;-71
2023/01/18 07:39:45;;;;;;;0.20;0.20;;;;;;;;;;4928580;28;20050;-71
2023/01/18 07:42:11;;;;;;;0.20;0.20;;;;;;;;;;4928700;28;20050;-69
2023/01/18 07:44:37;;;;;;;0.20;0.20;;;;;;;;;;4928576;28;20812;-70
2023/01/18 07:47:04;;;;;;;0.20;0.20;;;;;;;;;;4925164;28;20083;-70
2023/01/18 07:49:30;;;;;;;0.20;0.20;;;;;;;;;;4930082;28;20050;-72
2023/01/18 07:51:56;;;;;;;0.20;0.20;;;;;;;;;;4928490;28;20046;-71
2023/01/18 07:54:22;;;;;;;0.15;0.15;;;;;;;;;;4927216;28;20055;-73
2023/01/18 07:56:52;;;;;;;0.20;0.20;;;;;;;;;;4927560;28;20067;-76
2023/01/18 07:59:18;;;;;;;0.10;0.10;;;;;;;;;;4924525;28;20250;-70
2023/01/18 08:01:44;;;;;;;0.20;0.20;;;;;;;;;;4926997;28;20046;-71
2023/01/18 08:04:10;;;;;;;0.20;0.20;;;;;;;;;;4926770;28;20124;-70
2023/01/18 08:06:36;;;;;;;0.20;0.20;;;;;;;;;;4930809;28;20153;-70
2023/01/18 08:09:02;;;;;;;0.10;0.10;;;;;;;;;;4926444;28;20072;-70
2023/01/18 08:11:28;;;;;;;0.10;0.10;;;;;;;;;;4918110;28;20537;-70
2023/01/18 08:13:54;;;;;;;0.15;0.15;;;;;;;;;;4927187;28;20105;-70
2023/01/18 08:16:20;;;;;;;0.20;0.20;;;;;;;;;;4929116;28;20580;-70
2023/01/18 08:18:48;;;;;;;0.20;0.20;;;;;;;;;;4921975;28;20110;-70
2023/01/18 08:21:14;;;;;;;0.20;0.20;;;;;;;;;;4915123;28;20584;-70
2023/01/18 08:23:41;;;;;;;0.20;0.20;;;;;;;;;;4921977;28;20602;-70
2023/01/18 08:26:07;;;;;;;0.20;0.20;;;;;;;;;;4917371;28;20402;-71
2023/01/18 08:28:33;;;;;;;0.20;0.20;;;;;;;;;;4915954;28;20150;-71
2023/01/18 08:31:07;;;;;;;0.20;0.20;;;;;;;;;;4920222;28;20047;-71
2023/01/18 08:33:37;;;;;;;0.20;0.20;;;;;;;;;;4919598;28;20042;-72
2023/01/18 08:36:03;;;;;;;0.10;0.10;;;;;;;;;;4926845;28;20046;-72
2023/01/18 08:38:29;;;;;;;0.10;0.10;;;;;;;;;;4925350;28;20777;-71
2023/01/18 08:40:55;;;;;;;0.20;0.20;;;;;;;;;;4920071;28;20244;-73
2023/01/18 08:43:22;;;;;;;0.20;0.20;;;;;;;;;;4925225;28;20489;-70
2023/01/18 08:45:51;;;;;;;0.20;0.20;;;;;;;;;;4924048;28;20055;-72
2023/01/18 08:48:17;;;;;;;0.20;0.20;;;;;;;;;;4922538;28;20154;-70
2023/01/18 08:50:45;;;;;;;0.20;0.20;;;;;;;;;;4920568;28;20082;-70
2023/01/18 08:53:12;;;;;;;0.20;0.20;;;;;;;;;;4924835;28;20051;-71
2023/01/18 08:55:39;;;;;;;0.15;0.15;;;;;;;;;;4922480;28;20068;-70
2023/01/18 08:58:05;;;;;;;0.20;0.20;;;;;;;;;;4924197;28;20061;-71
2023/01/18 09:00:31;;;;;;;0.10;0.10;;;;;;;;;;4922798;28;20046;-71
2023/01/18 09:03:00;;;;;;;0.17;0.17;;;;;;;;;;4921867;28;20085;-72
2023/01/18 09:05:26;;;;;;;0.20;0.20;;;;;;;;;;4921758;28;20047;-72
2023/01/18 09:07:53;;;;;;;0.20;0.20;;;;;;;;;;4924821;28;20249;-72
2023/01/18 09:10:20;;;;;;;0.20;0.20;;;;;;;;;;4926455;28;20046;-70
2023/01/18 09:12:46;;;;;;;0.20;0.20;;;;;;;;;;4933982;28;20047;-71
2023/01/18 09:15:12;;;;;;;0.20;0.20;;;;;;;;;;4928404;28;20051;-70
2023/01/18 09:17:38;;;;;;;0.20;0.20;;;;;;;;;;4923553;28;20058;-70
2023/01/18 09:20:10;;;;;;;0.10;0.10;;;;;;;;;;4922682;28;20558;-70
2023/01/18 09:22:36;;;;;;;0.10;0.10;;;;;;;;;;4924454;28;20081;-70
2023/01/18 09:25:03;;;;;;;0.10;0.10;;;;;;;;;;4921829;28;20042;-71
2023/01/18 09:27:29;;;;;;;0.20;0.20;;;;;;;;;;4923277;28;20292;-70
2023/01/18 09:29:55;;;;;;;0.20;0.20;;;;;;;;;;4923706;28;20065;-70
2023/01/18 09:32:21;;;;;;;0.10;0.10;;;;;;;;;;4924604;28;20051;-70
2023/01/18 09:34:49;;;;;;;0.20;0.20;;;;;;;;;;4919406;28;20070;-71
2023/01/18 09:37:16;;;;;;;0.20;0.20;;;;;;;;;;4930963;28;20771;-71
2023/01/18 09:39:42;;;;;;;0.20;0.20;;;;;;;;;;4922575;28;20644;-71
2023/01/18 09:42:12;;;;;;;0.20;0.20;;;;;;;;;;4924575;28;20604;-70
2023/01/18 09:44:40;;;;;;;0.20;0.20;;;;;;;;;;4923830;28;20153;-71
2023/01/18 09:47:26;;;;;;;0.20;0.20;;;;;;;;;;4921593;28;20050;-71
2023/01/18 09:49:56;;;;;;;0.15;0.15;;;;;;;;;;4916898;28;20094;-71
2023/01/18 09:52:32;;;;;;;0.20;0.20;;;;;;;;;;4921722;28;20058;-71
2023/01/18 09:55:16;;;;;;;0.17;0.17;;;;;;;;;;4920468;28;20953;-72
2023/01/18 09:58:08;;;;;;;0.20;0.20;;;;;;;;;;4922688;28;20433;-71
2023/01/18 10:00:34;;;;;;;;;;;;;;;;;;4925245;28;20141;-71
2023/01/18 10:03:06;;;;;;;0.20;0.20;;;;;;;;;;4921960;28;20072;-71
2023/01/18 10:05:35;;;;;;;0.20;0.20;;;;;;;;;;4922303;28;20046;-71
2023/01/18 10:08:06;;;;;;;0.17;0.17;;;;;;;;;;4923393;28;20239;-71
2023/01/18 10:10:40;;;;;;;0.20;0.20;;;;;;;;;;4925686;28;20055;-72
2023/01/18 10:13:24;;;;;;;0.20;0.20;;;;;;;;;;4930139;28;20043;-70
2023/01/18 10:15:51;;;;;;;0.20;0.20;;;;;;;;;;4930370;28;20365;-71
2023/01/18 10:18:17;;;;;;;0.20;0.20;;;;;;;;;;4930039;28;20105;-71
2023/01/18 10:20:43;;;;;;;0.20;0.20;;;;;;;;;;4932267;28;20038;-70
2023/01/18 10:23:39;;;;;;;0.20;0.20;;;;;;;;;;4932546;28;20067;-72
2023/01/18 10:26:15;;;;;;;0.10;0.10;;;;;;;;;;4901867;28;20051;-71
2023/01/18 10:28:43;;;;;;;0.20;0.20;;;;;;;;;;4928950;28;20550;-71
2023/01/18 10:31:16;;;;;;;0.20;0.20;;;;;;;;;;4931074;28;20050;-73
2023/01/18 10:33:43;;;;;;;0.10;0.10;;;;;;;;;;4927097;28;20732;-72
2023/01/18 10:36:20;;;;;;;0.20;0.20;;;;;;;;;;4931668;28;20050;-71
2023/01/18 10:38:47;;;;;;;0.20;0.20;;;;;;;;;;4927443;28;20061;-71
2023/01/18 10:41:27;;;;;;;0.20;0.20;;;;;;;;;;4921911;28;20046;-71
2023/01/18 10:43:53;;;;;;;0.20;0.20;;;;;;;;;;4922364;28;20043;-71
2023/01/18 10:46:19;;;;;;;0.20;0.20;;;;;;;;;;4923748;28;20121;-71
2023/01/18 10:48:48;;;;;;;0.20;0.20;;;;;;;;;;4922175;28;20054;-71
2023/01/18 10:51:29;;;;;;;0.20;0.20;;;;;;;;;;4918999;28;20068;-71
2023/01/18 10:53:56;;;;;;;0.20;0.20;;;;;;;;;;4921261;28;20039;-71
2023/01/18 10:56:23;;;;;;;0.20;0.20;;;;;;;;;;4923542;28;20628;-72
2023/01/18 10:58:58;;;;;;;0.20;0.20;;;;;;;;;;4921048;28;20068;-71
2023/01/18 11:01:26;;;;;;;0.10;0.10;;;;;;;;;;4922178;28;20572;-71
2023/01/18 11:04:15;;;;;;;0.20;0.20;;;;;;;;;;4921339;28;20454;-71
2023/01/18 11:06:43;;;;;;;0.20;0.20;;;;;;;;;;4912727;28;20051;-71
2023/01/18 11:09:30;;;;;;;0.20;0.20;;;;;;;;;;4920124;28;20105;-71
2023/01/18 11:14:56;;;;;;;0.10;0.10;;;;;;;;;;4925822;28;20133;-72
2023/01/18 11:17:22;;;;;;;0.17;0.17;;;;;;;;;;4919578;28;20292;-72
2023/01/18 11:20:04;;;;;;;0.10;0.10;;;;;;;;;;4913567;28;20054;-71
2023/01/18 11:22:32;;;;;;;0.10;0.10;;;;;;;;;;4920313;28;20494;-71
2023/01/18 11:24:58;;;;;;;0.20;0.20;;;;;;;;;;4922047;28;20042;-72
2023/01/18 11:27:24;;;;;;;0.10;0.10;;;;;;;;;;4919403;28;20560;-73
2023/01/18 11:29:51;;;;;;;0.20;0.20;;;;;;;;;;4923691;28;20584;-73
2023/01/18 11:32:24;;;;;;;0.20;0.20;;;;;;;;;;4920495;28;20431;-71
2023/01/18 11:34:52;;;;;;;0.20;0.20;;;;;;;;;;4921444;28;20050;-71
2023/01/18 11:37:33;;;;;;;0.10;0.10;;;;;;;;;;4924122;28;20081;-71
2023/01/18 11:39:59;;;;;;;0.20;0.20;;;;;;;;;;4923778;28;20518;-71
2023/01/18 11:42:30;;;;;;;0.10;0.10;;;;;;;;;;4929063;28;20129;-71
2023/01/18 11:44:56;;;;;;;0.13;0.13;;;;;;;;;;4915970;28;20051;-71
2023/01/18 11:47:31;;;;;;;0.10;0.10;;;;;;;;;;4925588;28;20322;-70
2023/01/18 11:50:01;;;;;;;0.10;0.10;;;;;;;;;;4928735;28;20264;-70
2023/01/18 11:52:41;;;;;;;0.10;0.10;;;;;;;;;;4928384;28;20080;-71
2023/01/18 11:55:37;;;;;;;0.20;0.20;;;;;;;;;;4910813;29;20464;-70
2023/01/18 11:58:05;;;;;;;0.20;0.20;;;;;;;;;;4876625;29;20066;-72
2023/01/18 12:00:39;;;;;;;0.10;0.10;;;;;;;;;;4928479;28;20062;-72
2023/01/18 12:03:11;;;;;;;0.10;0.10;;;;;;;;;;4927768;28;20046;-71
2023/01/18 12:06:02;;;;;;;0.10;0.10;;;;;;;;;;4923617;28;20055;-70
2023/01/18 12:08:37;;;;;;;0.10;0.10;;;;;;;;;;4913436;28;20053;-71
2023/01/18 12:11:12;;;;;;;0.20;0.20;;;;;;;;;;4916986;28;20042;-71
2023/01/18 12:13:42;;;;;;;0.10;0.10;;;;;;;;;;4931328;28;20081;-71
2023/01/18 12:16:17;;;;;;;0.10;0.10;;;;;;;;;;4929885;28;20577;-72
2023/01/18 12:19:03;;;;;;;0.10;0.10;;;;;;;;;;4931142;28;20120;-71
2023/01/18 12:21:38;;;;;;;0.13;0.13;;;;;;;;;;4932294;28;20941;-71
2023/01/18 12:24:07;;;;;;;0.10;0.10;;;;;;;;;;4934520;28;20054;-70
2023/01/18 12:26:33;;;;;;;0.10;0.10;;;;;;;;;;4934393;28;20055;-72
2023/01/18 12:29:02;;;;;;;0.10;0.10;;;;;;;;;;4932002;28;20517;-72
2023/01/18 12:31:31;;;;;;;0.10;0.10;;;;;;;;;;4933785;28;20500;-72
2023/01/18 12:34:14;;;;;;;0.20;0.20;;;;;;;;;;4935198;28;20105;-71
2023/01/18 12:36:44;;;;;;;0.55;0.55;;;;;;;;;;4936086;28;20138;-71
2023/01/18 12:39:20;;;;;;;0.10;0.10;;;;;;;;;;4933044;28;20061;-71
2023/01/18 12:41:51;;;;;;;0.20;0.20;;;;;;;;;;4934165;28;20843;-71
2023/01/18 12:44:29;;;;;;;0.10;0.10;;;;;;;;;;4931814;28;20129;-72
2023/01/18 12:47:14;;;;;;;0.10;0.10;;;;;;;;;;4934120;28;20404;-71
2023/01/18 12:49:45;;;;;;;0.20;0.20;;;;;;;;;;4920020;28;20565;-71
2023/01/18 12:52:13;;;;;;;0.10;0.10;;;;;;;;;;4926459;28;21012;-71
2023/01/18 12:54:45;;;;;;;0.10;0.10;;;;;;;;;;4932736;28;20057;-71
2023/01/18 12:57:13;;;;;;;2.85;0.35;;;;;;;;;;4934787;28;20328;-71
2023/01/18 12:59:45;;;;;;;0.20;0.20;;;;;;;;;;4933254;28;20050;-71
2023/01/18 13:02:20;;;;;;;0.20;0.20;;;;;;;;;;4932837;28;20086;-72
2023/01/18 13:04:51;;;;;;;0.10;0.10;;;;;;;;;;4932719;28;20050;-71
2023/01/18 13:07:17;;;;;;;;;;;;;;;;;;4931673;28;20129;-73
2023/01/18 13:09:45;;;;;;;0.13;0.13;;;;;;;;;;4923522;28;20382;-73
2023/01/18 13:12:12;;;;;;;0.10;0.10;;;;;;;;;;4925291;28;20047;-73
2023/01/18 13:14:46;;;;;;;0.10;0.10;;;;;;;;;;4932233;28;20055;-73
2023/01/18 13:17:25;;;;;;;0.10;0.10;;;;;;;;;;4931477;28;20763;-72
2023/01/18 13:19:59;;;;;;;0.10;0.10;;;;;;;;;;4933707;28;20061;-71
2023/01/18 13:22:34;;;;;;;0.10;0.10;;;;;;;;;;4932862;28;20577;-71
2023/01/18 13:25:18;;;;;;;0.13;0.13;;;;;;;;;;4932605;28;20061;-71
2023/01/18 13:28:07;;;;;;;0.10;0.10;;;;;;;;;;4930063;28;20881;-71
2023/01/18 13:30:46;;;;;;;0.10;0.10;;;;;;;;;;4934802;28;20438;-72
2023/01/18 13:33:13;;;;;;;0.22;0.20;;;;;;;;;;4933414;28;20047;-72
2023/01/18 13:35:48;;;;;;;0.10;0.10;;;;;;;;;;4930310;28;20835;-70
2023/01/18 13:38:18;;;;;;;0.20;0.20;;;;;;;;;;4932313;28;20062;-71
2023/01/18 13:41:00;;;;;;;0.20;0.20;;;;;;;;;;4933008;28;20137;-70
2023/01/18 13:43:29;;;;;;;0.10;0.10;;;;;;;;;;4930449;28;20637;-71
2023/01/18 13:46:03;;;;;;;0.10;0.10;;;;;;;;;;4926436;28;20042;-72
2023/01/18 13:48:54;;;;;;;0.10;0.10;;;;;;;;;;4931292;28;20446;-72
2023/01/18 13:51:38;;;;;;;0.20;0.20;;;;;;;;;;4931654;28;20055;-73
2023/01/18 13:54:25;;;;;;;0.30;0.30;;;;;;;;;;4924961;28;20515;-71
2023/01/18 13:57:00;;;;;;;0.20;0.20;;;;;;;;;;4891558;28;20683;-72
2023/01/18 13:59:37;;;;;;;0.20;0.20;;;;;;;;;;4929727;28;20384;-71
2023/01/18 14:02:07;;;;;;;0.10;0.10;;;;;;;;;;4930726;28;20631;-72
2023/01/18 14:04:35;;;;;;;0.10;0.10;;;;;;;;;;4929432;28;20113;-71
2023/01/18 14:07:05;;;;;;;0.10;0.10;;;;;;;;;;4931790;28;20474;-70
2023/01/18 14:09:31;;;;;;;0.17;0.17;;;;;;;;;;4924700;28;20284;-71
2023/01/18 14:12:00;;;;;;;0.30;0.30;;;;;;;;;;4930632;28;20141;-71
2023/01/18 14:14:28;;;;;;;0.20;0.20;;;;;;;;;;4932739;28;20054;-72
2023/01/18 14:16:59;;;;;;;0.10;0.10;;;;;;;;;;4929879;28;20054;-71
2023/01/18 14:19:28;;;;;;;0.10;0.10;;;;;;;;;;4927956;28;20065;-73
2023/01/18 14:21:54;;;;;;;0.20;0.20;;;;;;;;;;4931636;28;20929;-71
2023/01/18 14:24:30;;;;;;;0.10;0.10;;;;;;;;;;4931021;28;20588;-72
2023/01/18 14:26:57;;;;;;;0.10;0.10;;;;;;;;;;4931129;28;20109;-71
2023/01/18 14:29:30;;;;;;;0.10;0.10;;;;;;;;;;4930628;28;20042;-72
2023/01/18 14:31:56;;;;;;;0.10;0.10;;;;;;;;;;4930830;28;20498;-71
2023/01/18 14:34:29;;;;;;;0.10;0.10;;;;;;;;;;4928839;28;20458;-72
2023/01/18 14:36:55;;;;;;;0.10;0.10;;;;;;;;;;4930962;28;20050;-72
2023/01/18 14:39:21;;;;;;;0.20;0.20;;;;;;;;;;4928071;28;20600;-72
2023/01/18 14:41:50;;;;;;;0.10;0.10;;;;;;;;;;4927148;28;20318;-72
2023/01/18 14:44:21;;;;;;;0.10;0.10;;;;;;;;;;4929578;28;20348;-73
2023/01/18 14:46:55;;;;;;;0.20;0.20;;;;;;;;;;4926815;28;20054;-71
2023/01/18 14:49:34;;;;;;;0.10;0.10;;;;;;;;;;4926331;28;20556;-71
2023/01/18 14:52:00;;;;;;;0.10;0.10;;;;;;;;;;4925980;28;20078;-71
2023/01/18 14:54:26;;;;;;;0.20;0.20;;;;;;;;;;4919391;28;20046;-73
2023/01/18 14:57:07;;;;;;;0.17;0.17;;;;;;;;;;4926603;28;20061;-73
2023/01/18 14:59:34;;;;;;;0.13;0.13;;;;;;;;;;4915011;28;20499;-71
2023/01/18 15:02:02;;;;;;;0.20;0.20;;;;;;;;;;4929643;28;20537;-71
2023/01/18 15:04:34;;;;;;;0.10;0.10;;;;;;;;;;4930228;28;20318;-71
2023/01/18 15:07:00;;;;;;;0.20;0.20;;;;;;;;;;4929042;28;20047;-71
2023/01/18 15:09:26;;;;;;;0.10;0.10;;;;;;;;;;4922864;28;20932;-71
2023/01/18 15:11:55;;;;;;;0.10;0.10;;;;;;;;;;4929359;28;20475;-71
2023/01/18 15:14:31;;;;;;;0.10;0.10;;;;;;;;;;4929126;28;20047;-72
2023/01/18 15:16:58;;;;;;;0.20;0.20;;;;;;;;;;4924024;28;20054;-71
2023/01/18 15:19:38;;;;;;;0.10;0.10;;;;;;;;;;4925164;28;20415;-71
2023/01/18 15:22:04;;;;;;;0.10;0.10;;;;;;;;;;4916439;28;20047;-71
2023/01/18 15:24:35;;;;;;;0.20;0.20;;;;;;;;;;4933739;28;20079;-71
2023/01/18 15:27:02;;;;;;;0.10;0.10;;;;;;;;;;4929731;28;20260;-71
2023/01/18 15:29:37;;;;;;;0.10;0.10;;;;;;;;;;4930758;28;20551;-71
2023/01/18 15:32:06;;;;;;;0.13;0.13;;;;;;;;;;4931444;28;20487;-71